Time;durP1;ratioP1;P1;durP2;ratioP2;P2;SDS_P1;SDS_P2;PMS_P1;PMS_P2;Temp;Humidity;BMP_temperature;BMP_pressure;BME280_temperature;BME280_humidity;BME280_pressure;Samples;Min_cycle;Max_cycle;Signal;HPM_P1;HPM_P2
2023/08/30 00:00:41;;;;;;;11.40;10.30;;;;;;;;;;4984886;28;20086;-77
2023/08/30 00:03:07;;;;;;;12.82;10.20;;;;;;;;;;4993773;28;20034;-77
2023/08/30 00:05:33;;;;;;;12.02;10.38;;;;;;;;;;4991937;28;20041;-77
2023/08/30 00:07:59;;;;;;;12.90;11.20;;;;;;;;;;4985278;28;20491;-77
2023/08/30 00:10:25;;;;;;;13.93;10.57;;;;;;;;;;4984314;28;20121;-77
2023/08/30 00:12:51;;;;;;;11.93;10.30;;;;;;;;;;4984153;28;20531;-78
2023/08/30 00:15:17;;;;;;;11.68;10.57;;;;;;;;;;4986496;28;20038;-78
2023/08/30 00:17:43;;;;;;;9.88;8.95;;;;;;;;;;4990207;28;20159;-77
2023/08/30 00:20:09;;;;;;;11.32;9.27;;;;;;;;;;4985368;28;20069;-78
2023/08/30 00:22:35;;;;;;;12.57;10.27;;;;;;;;;;4990137;28;20029;-77
2023/08/30 00:25:02;;;;;;;12.02;10.82;;;;;;;;;;4986504;28;20030;-77
2023/08/30 00:27:28;;;;;;;11.23;10.02;;;;;;;;;;4978220;28;20152;-75
2023/08/30 00:29:54;;;;;;;13.63;10.40;;;;;;;;;;4976163;28;20133;-77
2023/08/30 00:32:21;;;;;;;12.15;10.95;;;;;;;;;;4991631;28;20034;-77
2023/08/30 00:34:47;;;;;;;15.20;11.63;;;;;;;;;;4992431;28;20026;-77
2023/08/30 00:37:13;;;;;;;11.55;9.60;;;;;;;;;;4980061;28;20660;-77
2023/08/30 00:39:39;;;;;;;12.13;9.65;;;;;;;;;;4995402;28;20039;-78
2023/08/30 00:42:07;;;;;;;10.65;9.65;;;;;;;;;;4978026;28;20065;-77
2023/08/30 00:44:33;;;;;;;12.48;10.48;;;;;;;;;;4981680;28;20070;-77
2023/08/30 00:47:00;;;;;;;12.38;10.52;;;;;;;;;;4981783;28;20613;-77
2023/08/30 00:49:26;;;;;;;17.33;10.48;;;;;;;;;;4987010;28;20044;-77
2023/08/30 00:51:53;;;;;;;13.75;10.30;;;;;;;;;;4987916;28;20121;-77
2023/08/30 00:54:19;;;;;;;11.45;9.95;;;;;;;;;;4984497;28;20102;-77
2023/08/30 00:56:46;;;;;;;10.27;9.20;;;;;;;;;;4989992;28;20053;-78
2023/08/30 00:59:12;;;;;;;11.43;9.95;;;;;;;;;;4977851;28;20532;-77
2023/08/30 01:01:38;;;;;;;11.80;9.35;;;;;;;;;;4984862;28;20035;-77
2023/08/30 01:04:05;;;;;;;12.40;9.95;;;;;;;;;;4981460;28;20061;-77
2023/08/30 01:06:31;;;;;;;10.57;9.38;;;;;;;;;;4982676;28;20038;-78
2023/08/30 01:08:57;;;;;;;10.90;9.57;;;;;;;;;;4977319;28;20031;-77
2023/08/30 01:11:30;;;;;;;10.48;9.43;;;;;;;;;;4986031;28;20081;-77
2023/08/30 01:14:01;;;;;;;12.57;9.40;;;;;;;;;;4987852;28;20443;-77
2023/08/30 01:16:27;;;;;;;10.82;9.73;;;;;;;;;;4987702;28;20108;-77
2023/08/30 01:18:57;;;;;;;13.93;9.75;;;;;;;;;;4985592;28;20077;-77
2023/08/30 01:21:29;;;;;;;10.18;9.20;;;;;;;;;;4991037;28;20098;-77
2023/08/30 01:23:58;;;;;;;10.18;9.18;;;;;;;;;;4985701;28;20194;-77
2023/08/30 01:26:34;;;;;;;10.50;9.40;;;;;;;;;;4983510;28;20040;-77
2023/08/30 01:29:01;;;;;;;11.95;9.35;;;;;;;;;;5014430;28;20132;-78
2023/08/30 01:31:29;;;;;;;13.48;9.93;;;;;;;;;;4990546;28;20153;-77
2023/08/30 01:33:57;;;;;;;11.35;9.60;;;;;;;;;;4988350;28;20034;-77
2023/08/30 01:36:23;;;;;;;12.02;10.00;;;;;;;;;;4988030;28;20457;-76
2023/08/30 01:38:49;;;;;;;12.10;9.13;;;;;;;;;;5001296;28;20496;-77
2023/08/30 01:41:16;;;;;;;11.73;9.50;;;;;;;;;;4985993;28;20129;-77
2023/08/30 01:43:42;;;;;;;10.20;9.15;;;;;;;;;;4994593;28;20034;-77
2023/08/30 01:46:09;;;;;;;9.95;8.88;;;;;;;;;;4987980;28;20026;-78
2023/08/30 01:48:35;;;;;;;10.85;8.85;;;;;;;;;;4991824;28;20041;-76
2023/08/30 01:51:01;;;;;;;11.90;9.88;;;;;;;;;;4986057;28;20507;-77
2023/08/30 01:53:28;;;;;;;10.38;9.07;;;;;;;;;;4990115;28;20030;-76
2023/08/30 01:55:54;;;;;;;12.48;8.93;;;;;;;;;;4983778;28;20614;-77
2023/08/30 01:58:20;;;;;;;10.82;9.82;;;;;;;;;;4990204;28;20381;-77
2023/08/30 02:00:46;;;;;;;10.13;8.73;;;;;;;;;;4987634;28;20052;-78
2023/08/30 02:03:13;;;;;;;10.30;8.50;;;;;;;;;;4987515;28;20126;-77
2023/08/30 02:06:01;;;;;;;11.93;9.60;;;;;;;;;;4991950;28;20113;-77
2023/08/30 02:08:33;;;;;;;11.48;8.85;;;;;;;;;;4993888;28;20034;-77
2023/08/30 02:11:02;;;;;;;10.02;9.00;;;;;;;;;;4999481;28;20043;-76
2023/08/30 02:13:30;;;;;;;13.20;8.88;;;;;;;;;;4994926;28;20640;-76
2023/08/30 02:15:57;;;;;;;9.95;8.73;;;;;;;;;;4980441;28;20110;-76
2023/08/30 02:18:24;;;;;;;10.32;8.80;;;;;;;;;;4996837;28;20376;-76
2023/08/30 02:20:50;;;;;;;10.73;9.20;;;;;;;;;;4992726;28;20125;-77
2023/08/30 02:23:16;;;;;;;15.77;9.15;;;;;;;;;;4987367;28;20034;-76
2023/08/30 02:25:42;;;;;;;11.43;9.35;;;;;;;;;;4985334;28;20096;-77
2023/08/30 02:28:08;;;;;;;11.25;8.32;;;;;;;;;;4987578;28;20472;-76
2023/08/30 02:30:34;;;;;;;10.23;8.43;;;;;;;;;;4992578;28;20038;-76
2023/08/30 02:33:00;;;;;;;10.20;8.70;;;;;;;;;;4991212;28;20062;-76
2023/08/30 02:35:26;;;;;;;18.27;10.82;;;;;;;;;;4989263;28;20054;-76
2023/08/30 02:37:52;;;;;;;10.02;8.60;;;;;;;;;;4997450;28;20077;-77
2023/08/30 02:40:18;;;;;;;9.82;8.77;;;;;;;;;;4997398;28;20054;-76
2023/08/30 02:42:44;;;;;;;10.65;8.63;;;;;;;;;;4986850;28;20043;-76
2023/08/30 02:45:10;;;;;;;12.07;10.00;;;;;;;;;;4982579;28;20041;-77
2023/08/30 02:47:36;;;;;;;10.07;9.02;;;;;;;;;;4981372;28;20035;-76
2023/08/30 02:50:02;;;;;;;11.95;9.25;;;;;;;;;;4987588;28;20614;-76
2023/08/30 02:52:28;;;;;;;13.05;10.38;;;;;;;;;;4987247;28;20069;-78
2023/08/30 02:54:54;;;;;;;10.27;8.57;;;;;;;;;;4989482;28;21872;-76
2023/08/30 02:57:20;;;;;;;15.85;9.85;;;;;;;;;;4987767;28;20064;-76
2023/08/30 02:59:46;;;;;;;14.88;10.68;;;;;;;;;;4980733;28;20066;-76
2023/08/30 03:02:12;;;;;;;13.23;10.95;;;;;;;;;;4982383;28;20113;-76
2023/08/30 03:04:38;;;;;;;12.75;9.98;;;;;;;;;;4984775;28;20050;-77
2023/08/30 03:07:04;;;;;;;13.35;10.20;;;;;;;;;;4986647;28;20611;-77
2023/08/30 03:09:30;;;;;;;13.88;9.35;;;;;;;;;;4987634;28;20049;-77
2023/08/30 03:11:56;;;;;;;11.30;9.65;;;;;;;;;;4988118;28;20138;-77
2023/08/30 03:14:22;;;;;;;12.85;10.35;;;;;;;;;;4983884;28;20037;-78
2023/08/30 03:16:48;;;;;;;15.18;10.90;;;;;;;;;;4984077;28;20042;-76
2023/08/30 03:19:17;;;;;;;13.57;9.85;;;;;;;;;;4990396;28;20069;-76
2023/08/30 03:21:43;;;;;;;13.32;10.60;;;;;;;;;;4983268;28;20042;-76
2023/08/30 03:24:09;;;;;;;13.68;10.77;;;;;;;;;;4990334;28;20484;-77
2023/08/30 03:26:35;;;;;;;15.93;11.82;;;;;;;;;;4990849;28;20210;-76
2023/08/30 03:29:01;;;;;;;11.98;10.40;;;;;;;;;;4987420;28;20050;-75
2023/08/30 03:31:27;;;;;;;14.27;11.00;;;;;;;;;;4981445;28;20027;-76
2023/08/30 03:33:53;;;;;;;12.70;10.23;;;;;;;;;;4987158;28;20492;-76
2023/08/30 03:36:19;;;;;;;12.88;11.50;;;;;;;;;;4986397;28;20034;-76
2023/08/30 03:38:46;;;;;;;14.55;11.48;;;;;;;;;;4988490;28;20043;-76
2023/08/30 03:41:12;;;;;;;12.50;10.50;;;;;;;;;;4987097;28;20030;-77
2023/08/30 03:43:38;;;;;;;11.93;10.68;;;;;;;;;;4973615;28;20031;-76
2023/08/30 03:46:04;;;;;;;13.02;11.13;;;;;;;;;;4981344;28;20511;-76
2023/08/30 03:48:30;;;;;;;13.18;11.35;;;;;;;;;;4988992;28;20034;-76
2023/08/30 03:50:57;;;;;;;12.88;11.25;;;;;;;;;;4989726;28;20030;-76
2023/08/30 03:53:23;;;;;;;14.70;11.35;;;;;;;;;;4992030;28;20152;-77
2023/08/30 03:55:50;;;;;;;14.38;11.10;;;;;;;;;;4995867;28;20054;-76
2023/08/30 03:58:16;;;;;;;13.85;9.95;;;;;;;;;;4980738;28;20030;-77
2023/08/30 04:00:42;;;;;;;15.35;10.82;;;;;;;;;;4987176;28;20026;-76
2023/08/30 04:03:09;;;;;;;11.35;10.18;;;;;;;;;;4988074;28;20046;-76
2023/08/30 04:05:35;;;;;;;15.77;10.32;;;;;;;;;;4985269;28;20163;-76
2023/08/30 04:08:02;;;;;;;14.00;11.10;;;;;;;;;;4991132;28;20037;-77
2023/08/30 04:10:28;;;;;;;13.25;10.75;;;;;;;;;;4986431;28;20109;-80
2023/08/30 04:12:54;;;;;;;15.65;10.80;;;;;;;;;;4982011;28;20125;-78
2023/08/30 04:15:20;;;;;;;15.80;11.30;;;;;;;;;;4976775;28;20092;-80
2023/08/30 04:17:46;;;;;;;14.68;11.32;;;;;;;;;;4989316;28;20088;-80
2023/08/30 04:20:12;;;;;;;18.88;12.20;;;;;;;;;;4979430;28;20059;-80
2023/08/30 04:22:38;;;;;;;85.07;59.75;;;;;;;;;;4980242;28;20072;-79
2023/08/30 04:25:05;;;;;;;31.08;22.30;;;;;;;;;;5005350;28;20096;-77
2023/08/30 04:27:31;;;;;;;42.50;29.20;;;;;;;;;;4977114;28;20027;-78
2023/08/30 04:29:57;;;;;;;13.27;10.18;;;;;;;;;;4982072;28;20048;-76
2023/08/30 04:32:23;;;;;;;13.23;10.02;;;;;;;;;;4976683;28;20071;-79
2023/08/30 04:34:49;;;;;;;14.05;11.07;;;;;;;;;;4982440;28;20038;-78
2023/08/30 04:37:15;;;;;;;11.95;10.25;;;;;;;;;;4979694;28;20034;-78
2023/08/30 04:39:41;;;;;;;11.80;10.43;;;;;;;;;;4983449;28;20073;-77
2023/08/30 04:42:07;;;;;;;14.65;10.43;;;;;;;;;;4983265;28;20392;-77
2023/08/30 04:44:33;;;;;;;10.60;9.60;;;;;;;;;;4988218;28;20061;-76
2023/08/30 04:46:59;;;;;;;20.50;11.13;;;;;;;;;;4977523;28;20046;-78
2023/08/30 04:49:25;;;;;;;15.43;10.70;;;;;;;;;;4991401;28;20362;-78
2023/08/30 04:51:51;;;;;;;14.05;10.05;;;;;;;;;;4980397;28;20046;-76
2023/08/30 04:54:17;;;;;;;18.88;13.98;;;;;;;;;;4989618;28;20121;-77
2023/08/30 04:56:43;;;;;;;12.43;11.05;;;;;;;;;;4980343;28;20116;-77
2023/08/30 04:59:09;;;;;;;17.55;10.40;;;;;;;;;;4999216;28;20428;-76
2023/08/30 05:01:37;;;;;;;17.30;10.98;;;;;;;;;;4975764;28;20104;-75
2023/08/30 05:04:03;;;;;;;12.55;10.20;;;;;;;;;;4984792;28;20170;-78
2023/08/30 05:06:29;;;;;;;13.15;10.63;;;;;;;;;;4984835;28;20508;-78
2023/08/30 05:08:55;;;;;;;15.05;10.50;;;;;;;;;;4982384;28;20039;-77
2023/08/30 05:11:21;;;;;;;17.27;10.90;;;;;;;;;;4983948;28;20038;-77
2023/08/30 05:13:47;;;;;;;12.57;10.27;;;;;;;;;;4993163;28;20471;-79
2023/08/30 05:16:13;;;;;;;13.80;9.95;;;;;;;;;;4982739;28;20041;-76
2023/08/30 05:18:39;;;;;;;11.52;9.32;;;;;;;;;;4984962;28;20038;-77
2023/08/30 05:21:05;;;;;;;13.00;10.73;;;;;;;;;;4985165;28;20456;-78
2023/08/30 05:23:31;;;;;;;12.05;10.25;;;;;;;;;;4983158;28;20077;-77
2023/08/30 05:25:58;;;;;;;12.40;9.85;;;;;;;;;;4990340;28;20487;-77
2023/08/30 05:28:24;;;;;;;13.50;9.88;;;;;;;;;;5005099;28;20042;-77
2023/08/30 05:30:50;;;;;;;11.65;10.18;;;;;;;;;;4978449;28;20697;-79
2023/08/30 05:33:16;;;;;;;13.82;10.88;;;;;;;;;;5008851;28;20065;-77
2023/08/30 05:35:42;;;;;;;16.38;10.77;;;;;;;;;;4983929;28;20500;-77
2023/08/30 05:38:08;;;;;;;15.98;9.90;;;;;;;;;;4986672;28;20058;-77
2023/08/30 05:40:34;;;;;;;15.75;10.07;;;;;;;;;;4979085;28;20043;-77
2023/08/30 05:42:59;;;;;;;15.80;10.57;;;;;;;;;;4991719;28;20062;-77
2023/08/30 05:45:25;;;;;;;14.07;9.85;;;;;;;;;;4985262;28;20035;-76
2023/08/30 05:47:51;;;;;;;14.20;9.45;;;;;;;;;;4989954;28;20117;-77
2023/08/30 05:50:18;;;;;;;12.63;9.20;;;;;;;;;;4996751;28;20046;-77
2023/08/30 05:52:44;;;;;;;11.68;9.02;;;;;;;;;;4987272;28;20707;-76
2023/08/30 05:55:10;;;;;;;12.88;9.23;;;;;;;;;;4983697;28;20408;-78
2023/08/30 05:57:36;;;;;;;13.82;9.85;;;;;;;;;;4988434;28;20041;-77
2023/08/30 06:00:02;;;;;;;12.27;9.20;;;;;;;;;;4984977;28;20030;-77
2023/08/30 06:02:28;;;;;;;12.95;8.35;;;;;;;;;;4982722;28;20039;-78
2023/08/30 06:04:54;;;;;;;13.43;9.98;;;;;;;;;;4995770;28;20034;-81
2023/08/30 06:07:20;;;;;;;12.15;10.20;;;;;;;;;;4990779;28;20117;-78
2023/08/30 06:09:46;;;;;;;11.80;9.52;;;;;;;;;;4990386;28;20117;-77
2023/08/30 06:12:12;;;;;;;12.88;9.68;;;;;;;;;;4985770;28;20030;-77
2023/08/30 06:14:38;;;;;;;12.73;8.82;;;;;;;;;;4991765;28;20160;-77
2023/08/30 06:17:04;;;;;;;12.93;9.30;;;;;;;;;;4986687;28;20121;-77
2023/08/30 06:19:30;;;;;;;10.75;8.80;;;;;;;;;;4984962;28;20065;-78
2023/08/30 06:21:56;;;;;;;13.95;8.93;;;;;;;;;;4994401;28;20042;-76
2023/08/30 06:24:22;;;;;;;13.63;9.38;;;;;;;;;;4989930;28;20041;-76
2023/08/30 06:26:48;;;;;;;13.60;10.02;;;;;;;;;;4987908;28;20058;-77
2023/08/30 06:29:14;;;;;;;12.35;8.90;;;;;;;;;;4988478;28;20073;-80
2023/08/30 06:31:42;;;;;;;10.30;8.55;;;;;;;;;;4988593;28;20397;-80
2023/08/30 06:34:08;;;;;;;10.65;8.85;;;;;;;;;;4995654;28;20124;-76
2023/08/30 06:36:34;;;;;;;11.27;8.90;;;;;;;;;;4992897;28;20112;-77
2023/08/30 06:39:00;;;;;;;11.63;8.95;;;;;;;;;;4996754;28;20093;-77
2023/08/30 06:41:26;;;;;;;13.23;9.27;;;;;;;;;;4982188;28;20116;-77
2023/08/30 06:43:52;;;;;;;9.95;7.75;;;;;;;;;;4988330;28;20042;-77
2023/08/30 06:46:18;;;;;;;10.30;8.23;;;;;;;;;;4993503;28;20130;-76
2023/08/30 06:48:44;;;;;;;14.55;8.57;;;;;;;;;;4987161;28;20116;-78
2023/08/30 06:51:10;;;;;;;15.02;8.40;;;;;;;;;;4993879;28;20030;-75
2023/08/30 06:53:36;;;;;;;11.20;8.93;;;;;;;;;;5002678;28;20049;-76
2023/08/30 06:56:03;;;;;;;12.75;8.75;;;;;;;;;;4991834;28;20050;-75
2023/08/30 06:58:29;;;;;;;11.40;8.07;;;;;;;;;;4986861;28;20042;-77
2023/08/30 07:00:57;;;;;;;13.18;8.65;;;;;;;;;;4993956;28;20089;-76
2023/08/30 07:03:23;;;;;;;11.57;8.77;;;;;;;;;;4985461;28;20092;-77
2023/08/30 07:05:51;;;;;;;10.85;8.45;;;;;;;;;;4991645;28;20050;-77
2023/08/30 07:08:17;;;;;;;15.75;8.80;;;;;;;;;;4989872;28;20494;-76
2023/08/30 07:10:43;;;;;;;11.63;8.25;;;;;;;;;;5000936;28;20049;-78
2023/08/30 07:13:12;;;;;;;15.88;9.93;;;;;;;;;;4986169;28;20026;-77
2023/08/30 07:15:42;;;;;;;11.25;8.18;;;;;;;;;;4988504;28;20034;-76
2023/08/30 07:18:08;;;;;;;14.07;7.22;;;;;;;;;;4986434;28;20042;-76
2023/08/30 07:20:36;;;;;;;10.70;8.07;;;;;;;;;;4976499;28;20100;-78
2023/08/30 07:23:02;;;;;;;14.23;8.27;;;;;;;;;;4983214;28;20058;-77
2023/08/30 07:25:28;;;;;;;10.95;7.43;;;;;;;;;;4999084;28;20027;-77
2023/08/30 07:27:54;;;;;;;10.18;7.53;;;;;;;;;;4984506;28;20050;-77
2023/08/30 07:30:20;;;;;;;10.48;8.18;;;;;;;;;;4989732;28;20038;-78
2023/08/30 07:32:47;;;;;;;9.10;6.85;;;;;;;;;;4993652;28;20030;-76
2023/08/30 07:35:13;;;;;;;9.50;6.93;;;;;;;;;;4977385;28;20038;-77
2023/08/30 07:37:40;;;;;;;13.38;7.20;;;;;;;;;;4994282;28;20058;-78
2023/08/30 07:40:07;;;;;;;9.70;6.72;;;;;;;;;;4990467;28;20043;-76
2023/08/30 07:42:33;;;;;;;9.13;7.05;;;;;;;;;;4995402;28;20480;-75
2023/08/30 07:44:59;;;;;;;7.97;5.75;;;;;;;;;;4982859;28;20105;-77
2023/08/30 07:47:25;;;;;;;7.75;6.10;;;;;;;;;;4988603;28;20058;-77
2023/08/30 07:49:51;;;;;;;6.88;5.40;;;;;;;;;;4984912;28;20117;-77
2023/08/30 07:52:17;;;;;;;9.25;6.30;;;;;;;;;;4985452;28;20219;-83
2023/08/30 07:54:43;;;;;;;9.50;5.88;;;;;;;;;;4986077;28;20122;-81
2023/08/30 07:57:09;;;;;;;11.60;6.63;;;;;;;;;;4977752;28;20392;-80
2023/08/30 07:59:38;;;;;;;14.63;10.25;;;;;;;;;;4987822;28;20627;-80
2023/08/30 08:02:07;;;;;;;93.82;67.80;;;;;;;;;;4988803;28;20038;-81
2023/08/30 08:04:33;;;;;;;10.45;7.80;;;;;;;;;;4986848;28;20068;-83
2023/08/30 08:06:59;;;;;;;10.40;6.30;;;;;;;;;;4986912;28;20341;-83
2023/08/30 08:09:25;;;;;;;10.32;6.70;;;;;;;;;;4990496;28;20038;-80
2023/08/30 08:11:57;;;;;;;9.93;7.40;;;;;;;;;;4986594;28;20031;-78
2023/08/30 08:14:24;;;;;;;9.52;6.68;;;;;;;;;;4988797;28;20030;-79
2023/08/30 08:16:50;;;;;;;11.55;7.40;;;;;;;;;;4990049;28;20057;-77
2023/08/30 08:19:16;;;;;;;8.90;7.10;;;;;;;;;;4986530;28;20043;-79
2023/08/30 08:21:42;;;;;;;11.55;7.57;;;;;;;;;;4978341;28;20042;-79
2023/08/30 08:24:08;;;;;;;14.50;8.13;;;;;;;;;;4986305;28;20479;-83
2023/08/30 08:26:34;;;;;;;16.55;12.40;;;;;;;;;;4984844;28;20038;-84
2023/08/30 08:29:00;;;;;;;9.90;7.10;;;;;;;;;;4987428;28;20042;-79
2023/08/30 08:31:27;;;;;;;13.85;7.95;;;;;;;;;;4985139;28;21970;-78
2023/08/30 08:34:06;;;;;;;9.45;6.85;;;;;;;;;;4983886;28;20034;-84
2023/08/30 08:36:33;;;;;;;9.57;7.95;;;;;;;;;;4984833;28;20081;-85
2023/08/30 08:38:58;;;;;;;7.38;6.22;;;;;;;;;;4986726;28;20037;-82
2023/08/30 08:41:28;;;;;;;22.20;8.23;;;;;;;;;;4994724;28;20053;-87
2023/08/30 08:43:54;;;;;;;12.23;7.78;;;;;;;;;;4982205;28;20076;-85
2023/08/30 08:46:21;;;;;;;10.43;6.55;;;;;;;;;;4987404;28;20037;-82
2023/08/30 08:48:48;;;;;;;12.95;7.70;;;;;;;;;;4991079;28;20498;-83
2023/08/30 08:51:15;;;;;;;10.00;6.75;;;;;;;;;;4982210;28;20046;-81
2023/08/30 08:53:41;;;;;;;227.07;16.80;;;;;;;;;;4982011;28;20038;-82
2023/08/30 08:56:08;;;;;;;86.05;10.93;;;;;;;;;;5000228;28;20416;-80
2023/08/30 08:58:35;;;;;;;12.30;7.55;;;;;;;;;;4980665;28;20038;-80
2023/08/30 09:01:02;;;;;;;16.92;8.00;;;;;;;;;;4986241;28;20066;-81
2023/08/30 09:03:28;;;;;;;12.68;7.40;;;;;;;;;;4978645;28;20225;-81
2023/08/30 09:05:54;;;;;;;17.58;10.75;;;;;;;;;;4982024;28;20038;-82
2023/08/30 09:08:21;;;;;;;13.13;8.25;;;;;;;;;;4974653;28;20036;-80
2023/08/30 09:10:50;;;;;;;12.02;9.32;;;;;;;;;;4978023;28;20065;-82
2023/08/30 09:13:16;;;;;;;10.90;6.75;;;;;;;;;;4981598;28;20143;-81
2023/08/30 09:15:42;;;;;;;11.20;7.55;;;;;;;;;;4982905;28;20768;-80
2023/08/30 09:18:18;;;;;;;7.30;6.00;;;;;;;;;;4983799;28;20074;-81
2023/08/30 09:20:44;;;;;;;10.18;6.70;;;;;;;;;;4977669;28;20042;-83
2023/08/30 09:23:20;;;;;;;11.20;6.22;;;;;;;;;;4977920;28;20543;-83
2023/08/30 09:25:46;;;;;;;7.43;5.20;;;;;;;;;;4990728;28;20030;-79
2023/08/30 09:28:13;;;;;;;9.77;4.93;;;;;;;;;;4987224;28;20042;-82
2023/08/30 09:30:39;;;;;;;7.28;5.60;;;;;;;;;;4983749;28;20125;-82
2023/08/30 09:33:05;;;;;;;5.88;4.90;;;;;;;;;;5000605;28;20274;-79
2023/08/30 09:35:32;;;;;;;12.70;5.85;;;;;;;;;;4988057;28;20511;-80
2023/08/30 09:37:58;;;;;;;8.52;5.35;;;;;;;;;;4986996;28;20061;-80
2023/08/30 09:40:24;;;;;;;9.20;5.22;;;;;;;;;;4997591;28;20045;-81
2023/08/30 09:42:50;;;;;;;9.70;5.15;;;;;;;;;;4986645;28;20496;-80
2023/08/30 09:45:20;;;;;;;10.15;5.57;;;;;;;;;;4989959;28;20084;-80
2023/08/30 09:47:49;;;;;;;10.80;5.55;;;;;;;;;;4990910;28;20508;-79
2023/08/30 09:50:19;;;;;;;9.07;5.55;;;;;;;;;;4998991;28;20141;-79
2023/08/30 09:52:48;;;;;;;16.10;5.72;;;;;;;;;;4983947;28;20119;-75
2023/08/30 09:55:15;;;;;;;9.60;5.80;;;;;;;;;;4986682;28;20133;-76
2023/08/30 09:57:43;;;;;;;7.70;5.07;;;;;;;;;;4991252;28;20087;-75
2023/08/30 10:00:12;;;;;;;14.13;5.05;;;;;;;;;;4985394;28;20038;-77
2023/08/30 10:02:40;;;;;;;7.07;5.03;;;;;;;;;;4984492;28;20030;-78
2023/08/30 10:05:06;;;;;;;8.52;5.68;;;;;;;;;;4990863;28;20519;-77
2023/08/30 10:07:32;;;;;;;6.55;4.55;;;;;;;;;;4993162;28;20088;-80
2023/08/30 10:09:59;;;;;;;6.25;4.78;;;;;;;;;;4990316;28;20746;-79
2023/08/30 10:12:25;;;;;;;6.25;5.43;;;;;;;;;;5000677;28;20125;-78
2023/08/30 10:14:51;;;;;;;8.07;4.70;;;;;;;;;;4990389;28;20034;-81
2023/08/30 10:17:19;;;;;;;4.30;3.90;;;;;;;;;;4985624;28;20046;-78
2023/08/30 10:19:46;;;;;;;7.50;4.53;;;;;;;;;;4989001;28;20051;-79
2023/08/30 10:22:15;;;;;;;5.38;4.07;;;;;;;;;;4998588;28;20105;-82
2023/08/30 10:24:49;;;;;;;5.80;3.75;;;;;;;;;;4998433;28;20121;-82
2023/08/30 10:27:15;;;;;;;4.88;3.83;;;;;;;;;;4991307;28;20081;-82
2023/08/30 10:29:42;;;;;;;5.40;3.72;;;;;;;;;;4988793;28;20369;-79
2023/08/30 10:32:09;;;;;;;4.80;3.90;;;;;;;;;;4997074;28;20030;-79
2023/08/30 10:34:36;;;;;;;4.65;3.67;;;;;;;;;;4999770;28;20073;-78
2023/08/30 10:37:03;;;;;;;4.15;3.20;;;;;;;;;;4982066;28;20526;-78
2023/08/30 10:39:39;;;;;;;6.38;3.60;;;;;;;;;;4986600;28;20109;-77
2023/08/30 10:42:09;;;;;;;3.90;3.22;;;;;;;;;;4995522;28;20045;-79
2023/08/30 10:44:35;;;;;;;5.43;2.55;;;;;;;;;;4983575;28;20625;-78
2023/08/30 10:47:04;;;;;;;4.75;3.08;;;;;;;;;;4978922;28;20030;-78
2023/08/30 10:49:30;;;;;;;50.92;35.85;;;;;;;;;;4984593;28;20124;-84
2023/08/30 10:52:00;;;;;;;34.88;21.00;;;;;;;;;;4989874;28;20037;-89
2023/08/30 10:54:36;;;;;;;3.83;2.70;;;;;;;;;;4980560;28;20045;-79
2023/08/30 10:57:03;;;;;;;3.65;2.67;;;;;;;;;;4995571;28;20039;-81
2023/08/30 10:59:32;;;;;;;4.35;2.97;;;;;;;;;;4986861;28;20376;-85
2023/08/30 11:02:03;;;;;;;7.43;3.40;;;;;;;;;;4983301;28;20038;-82
2023/08/30 11:04:29;;;;;;;6.43;4.50;;;;;;;;;;4982608;28;20034;-85
2023/08/30 11:06:55;;;;;;;7.13;4.82;;;;;;;;;;4997744;28;20491;-84
2023/08/30 11:09:22;;;;;;;5.00;4.40;;;;;;;;;;4988731;28;20038;-84
2023/08/30 11:11:49;;;;;;;6.22;3.67;;;;;;;;;;4990585;28;20037;-86
2023/08/30 11:14:16;;;;;;;5.55;4.15;;;;;;;;;;4988568;28;20026;-86
2023/08/30 11:16:42;;;;;;;5.80;4.47;;;;;;;;;;4986681;28;20029;-81
2023/08/30 11:19:09;;;;;;;5.32;4.25;;;;;;;;;;4994717;28;20037;-80
2023/08/30 11:21:37;;;;;;;7.45;4.22;;;;;;;;;;4985700;28;20037;-77
2023/08/30 11:24:04;;;;;;;7.78;4.10;;;;;;;;;;4992417;28;20053;-77
2023/08/30 11:26:30;;;;;;;4.82;3.88;;;;;;;;;;4989510;28;20061;-78
2023/08/30 11:28:56;;;;;;;4.43;3.63;;;;;;;;;;4983937;28;20088;-76
2023/08/30 11:31:23;;;;;;;6.70;4.30;;;;;;;;;;4985786;28;20046;-77
2023/08/30 11:33:56;;;;;;;5.00;3.58;;;;;;;;;;4981507;28;20037;-76
2023/08/30 11:36:23;;;;;;;3.80;3.30;;;;;;;;;;4986820;28;20026;-77
2023/08/30 11:38:53;;;;;;;5.80;4.00;;;;;;;;;;4983266;28;20093;-77
2023/08/30 11:41:23;;;;;;;4.35;3.70;;;;;;;;;;4991998;28;20048;-77
2023/08/30 11:43:49;;;;;;;4.82;4.18;;;;;;;;;;4986582;28;20038;-77
2023/08/30 11:46:15;;;;;;;4.72;3.75;;;;;;;;;;4976037;28;20041;-77
2023/08/30 11:48:42;;;;;;;5.30;3.65;;;;;;;;;;4972406;28;20030;-77
2023/08/30 11:51:08;;;;;;;4.95;3.95;;;;;;;;;;4989048;28;20052;-76
2023/08/30 11:53:35;;;;;;;6.80;4.60;;;;;;;;;;4977138;28;23133;-76
2023/08/30 11:56:01;;;;;;;8.15;4.85;;;;;;;;;;4990557;28;20042;-77
2023/08/30 11:58:27;;;;;;;4.78;4.25;;;;;;;;;;4979138;28;20080;-77
2023/08/30 12:00:54;;;;;;;8.50;4.20;;;;;;;;;;4980790;28;20401;-76
2023/08/30 12:03:23;;;;;;;7.63;4.43;;;;;;;;;;4985164;28;20038;-76
2023/08/30 12:05:50;;;;;;;5.10;4.30;;;;;;;;;;4980350;28;20039;-77
2023/08/30 12:08:34;;;;;;;6.20;5.07;;;;;;;;;;4985343;28;20030;-78
2023/08/30 12:11:00;;;;;;;5.28;4.63;;;;;;;;;;4981426;28;20042;-76
2023/08/30 12:13:27;;;;;;;5.70;5.07;;;;;;;;;;4982634;28;20050;-77
2023/08/30 12:15:57;;;;;;;8.68;5.35;;;;;;;;;;4985183;28;20027;-76
2023/08/30 12:18:23;;;;;;;7.05;4.97;;;;;;;;;;4987265;28;20031;-76
2023/08/30 12:20:53;;;;;;;8.63;5.80;;;;;;;;;;4986862;28;20038;-77
2023/08/30 12:23:23;;;;;;;8.93;5.05;;;;;;;;;;4986476;28;20503;-76
2023/08/30 12:26:03;;;;;;;6.70;5.57;;;;;;;;;;4994720;28;20038;-75
2023/08/30 12:28:30;;;;;;;7.65;5.97;;;;;;;;;;4985347;28;20061;-75
2023/08/30 12:30:56;;;;;;;7.68;5.75;;;;;;;;;;4986129;28;20038;-75
2023/08/30 12:33:25;;;;;;;7.15;5.88;;;;;;;;;;4981807;28;20483;-76
2023/08/30 12:35:51;;;;;;;7.00;5.93;;;;;;;;;;4990228;28;20030;-75
2023/08/30 12:38:17;;;;;;;6.85;5.43;;;;;;;;;;4983643;28;20037;-77
2023/08/30 12:40:53;;;;;;;8.63;5.80;;;;;;;;;;4986259;28;20768;-75
2023/08/30 12:43:22;;;;;;;8.07;6.03;;;;;;;;;;4986498;28;20038;-76
2023/08/30 12:45:50;;;;;;;8.05;6.35;;;;;;;;;;4985209;28;20027;-75
2023/08/30 12:48:16;;;;;;;7.15;6.40;;;;;;;;;;4988700;28;20032;-75
2023/08/30 12:50:47;;;;;;;9.15;6.38;;;;;;;;;;4988676;28;20038;-76
2023/08/30 12:53:13;;;;;;;8.48;6.32;;;;;;;;;;4983584;28;20045;-75
2023/08/30 12:55:40;;;;;;;8.65;6.03;;;;;;;;;;4981807;28;20050;-76
2023/08/30 12:58:06;;;;;;;8.52;7.07;;;;;;;;;;4985332;28;20136;-76
2023/08/30 13:00:33;;;;;;;7.88;6.70;;;;;;;;;;4979030;28;20515;-75
2023/08/30 13:02:59;;;;;;;7.60;6.18;;;;;;;;;;4983705;28;20058;-75
2023/08/30 13:05:25;;;;;;;7.93;6.70;;;;;;;;;;4986341;28;20673;-76
2023/08/30 13:07:51;;;;;;;8.35;7.10;;;;;;;;;;4984160;28;20058;-76
2023/08/30 13:10:18;;;;;;;8.38;6.05;;;;;;;;;;4984603;28;20034;-76
2023/08/30 13:12:44;;;;;;;9.60;7.32;;;;;;;;;;4983196;28;20114;-76
2023/08/30 13:15:10;;;;;;;10.25;7.22;;;;;;;;;;4978976;28;20039;-75
2023/08/30 13:17:36;;;;;;;9.77;7.55;;;;;;;;;;4982818;28;20428;-75
2023/08/30 13:20:03;;;;;;;9.98;7.60;;;;;;;;;;4981790;28;20050;-75
2023/08/30 13:22:29;;;;;;;8.77;7.03;;;;;;;;;;4989199;28;20054;-75
2023/08/30 13:24:55;;;;;;;8.60;7.13;;;;;;;;;;4985167;28;20070;-75
2023/08/30 13:27:21;;;;;;;7.85;7.05;;;;;;;;;;4981396;28;20046;-76
2023/08/30 13:29:47;;;;;;;8.57;7.07;;;;;;;;;;4981367;28;20034;-75
2023/08/30 13:32:13;;;;;;;9.02;7.50;;;;;;;;;;4984661;28;20026;-76
2023/08/30 13:34:39;;;;;;;6.57;5.88;;;;;;;;;;4992201;28;20376;-75
2023/08/30 13:37:06;;;;;;;9.15;6.43;;;;;;;;;;4985668;28;20623;-75
2023/08/30 13:39:32;;;;;;;9.40;6.40;;;;;;;;;;4980367;28;20452;-75
2023/08/30 13:41:58;;;;;;;7.78;6.60;;;;;;;;;;4983076;28;20034;-76
2023/08/30 13:44:24;;;;;;;7.82;6.40;;;;;;;;;;4978881;28;20097;-75
2023/08/30 13:46:51;;;;;;;7.93;6.38;;;;;;;;;;4981865;28;20038;-75
2023/08/30 13:49:18;;;;;;;7.03;6.00;;;;;;;;;;4978573;28;20038;-76
2023/08/30 13:51:45;;;;;;;6.57;5.38;;;;;;;;;;4983667;28;20102;-76
2023/08/30 13:54:11;;;;;;;6.40;5.70;;;;;;;;;;4994174;28;20240;-75
2023/08/30 13:56:41;;;;;;;7.68;5.90;;;;;;;;;;4983139;28;20532;-75
2023/08/30 13:59:07;;;;;;;6.40;5.28;;;;;;;;;;4985353;28;20508;-75
2023/08/30 14:01:35;;;;;;;8.40;5.93;;;;;;;;;;4973145;28;20035;-74
2023/08/30 14:04:01;;;;;;;7.53;4.90;;;;;;;;;;4983184;28;20022;-74
2023/08/30 14:06:27;;;;;;;5.93;5.32;;;;;;;;;;4977995;28;20492;-75
2023/08/30 14:08:53;;;;;;;6.10;5.50;;;;;;;;;;5005287;28;20045;-74
2023/08/30 14:11:19;;;;;;;5.28;4.78;;;;;;;;;;4987239;28;20049;-74
2023/08/30 14:13:45;;;;;;;6.53;4.70;;;;;;;;;;4985094;28;20043;-74
2023/08/30 14:16:11;;;;;;;5.13;4.28;;;;;;;;;;4981952;28;20587;-76
2023/08/30 14:18:37;;;;;;;4.43;4.03;;;;;;;;;;4986437;28;20113;-75
2023/08/30 14:21:03;;;;;;;7.32;4.90;;;;;;;;;;4988198;28;20165;-75
2023/08/30 14:23:30;;;;;;;3.90;3.33;;;;;;;;;;4987347;28;20124;-75
2023/08/30 14:25:59;;;;;;;4.00;3.30;;;;;;;;;;4983484;28;20030;-76
2023/08/30 14:28:28;;;;;;;4.18;3.00;;;;;;;;;;4979761;28;20031;-76